sensor_id;sensor_type;location;lat;lon;timestamp;temperature;humidity
81136;DHT22;70622;50.886;3.890;2023-06-22T00:00:52;21.20;59.30
81136;DHT22;70622;50.886;3.890;2023-06-22T00:03:20;21.20;59.10
81136;DHT22;70622;50.886;3.890;2023-06-22T00:05:47;21.20;59.20
81136;DHT22;70622;50.886;3.890;2023-06-22T00:08:13;21.20;59.30
81136;DHT22;70622;50.886;3.890;2023-06-22T00:10:38;21.20;59.30
81136;DHT22;70622;50.886;3.890;2023-06-22T00:13:08;21.10;59.40
81136;DHT22;70622;50.886;3.890;2023-06-22T00:15:34;21.10;60.00
81136;DHT22;70622;50.886;3.890;2023-06-22T00:17:59;21.10;60.10
81136;DHT22;70622;50.886;3.890;2023-06-22T00:20:26;21.00;59.80
81136;DHT22;70622;50.886;3.890;2023-06-22T00:22:54;21.00;59.80
81136;DHT22;70622;50.886;3.890;2023-06-22T00:25:20;21.00;59.80
81136;DHT22;70622;50.886;3.890;2023-06-22T00:27:45;20.90;59.90
81136;DHT22;70622;50.886;3.890;2023-06-22T00:30:11;21.00;60.00
81136;DHT22;70622;50.886;3.890;2023-06-22T00:32:37;20.90;60.30
81136;DHT22;70622;50.886;3.890;2023-06-22T00:35:03;20.80;60.50
81136;DHT22;70622;50.886;3.890;2023-06-22T00:37:29;20.80;60.60
81136;DHT22;70622;50.886;3.890;2023-06-22T00:39:55;20.80;60.50
81136;DHT22;70622;50.886;3.890;2023-06-22T00:42:22;20.80;60.90
81136;DHT22;70622;50.886;3.890;2023-06-22T00:44:47;20.70;61.10
81136;DHT22;70622;50.886;3.890;2023-06-22T00:47:15;20.70;61.40
81136;DHT22;70622;50.886;3.890;2023-06-22T00:49:41;20.70;62.90
81136;DHT22;70622;50.886;3.890;2023-06-22T00:52:08;20.70;61.30
81136;DHT22;70622;50.886;3.890;2023-06-22T00:54:37;20.60;62.30
81136;DHT22;70622;50.886;3.890;2023-06-22T00:57:04;20.60;62.30
81136;DHT22;70622;50.886;3.890;2023-06-22T00:59:30;20.60;62.60
81136;DHT22;70622;50.886;3.890;2023-06-22T01:01:57;20.50;62.70
81136;DHT22;70622;50.886;3.890;2023-06-22T01:04:34;20.50;62.50
81136;DHT22;70622;50.886;3.890;2023-06-22T01:09:59;20.50;62.50
81136;DHT22;70622;50.886;3.890;2023-06-22T01:12:30;20.50;62.70
81136;DHT22;70622;50.886;3.890;2023-06-22T01:15:12;20.50;62.70
81136;DHT22;70622;50.886;3.890;2023-06-22T01:17:40;20.50;62.80
81136;DHT22;70622;50.886;3.890;2023-06-22T01:20:09;20.40;63.00
81136;DHT22;70622;50.886;3.890;2023-06-22T01:23:09;20.40;63.10
81136;DHT22;70622;50.886;3.890;2023-06-22T01:25:36;20.40;63.30
81136;DHT22;70622;50.886;3.890;2023-06-22T01:30:51;20.30;63.90
81136;DHT22;70622;50.886;3.890;2023-06-22T01:33:29;20.30;63.90
81136;DHT22;70622;50.886;3.890;2023-06-22T01:35:57;20.30;64.00
81136;DHT22;70622;50.886;3.890;2023-06-22T01:38:23;20.20;64.30
81136;DHT22;70622;50.886;3.890;2023-06-22T01:40:50;20.20;64.10
81136;DHT22;70622;50.886;3.890;2023-06-22T01:43:16;20.20;64.30
81136;DHT22;70622;50.886;3.890;2023-06-22T01:45:42;20.20;65.80
81136;DHT22;70622;50.886;3.890;2023-06-22T01:48:08;20.20;64.80
81136;DHT22;70622;50.886;3.890;2023-06-22T01:50:34;20.10;64.80
81136;DHT22;70622;50.886;3.890;2023-06-22T01:52:59;20.10;65.20
81136;DHT22;70622;50.886;3.890;2023-06-22T01:55:25;20.00;65.50
81136;DHT22;70622;50.886;3.890;2023-06-22T01:57:51;20.00;65.80
81136;DHT22;70622;50.886;3.890;2023-06-22T02:00:20;20.10;65.70
81136;DHT22;70622;50.886;3.890;2023-06-22T02:02:56;20.10;65.50
81136;DHT22;70622;50.886;3.890;2023-06-22T02:05:28;20.10;65.70
81136;DHT22;70622;50.886;3.890;2023-06-22T02:08:07;20.00;65.80
81136;DHT22;70622;50.886;3.890;2023-06-22T02:10:36;19.90;66.40
81136;DHT22;70622;50.886;3.890;2023-06-22T02:13:06;19.90;66.50
81136;DHT22;70622;50.886;3.890;2023-06-22T02:15:32;20.00;66.60
81136;DHT22;70622;50.886;3.890;2023-06-22T02:17:59;20.00;66.50
81136;DHT22;70622;50.886;3.890;2023-06-22T02:20:25;20.00;66.50
81136;DHT22;70622;50.886;3.890;2023-06-22T02:22:50;19.90;66.70
81136;DHT22;70622;50.886;3.890;2023-06-22T02:25:16;19.90;66.90
81136;DHT22;70622;50.886;3.890;2023-06-22T02:27:42;19.80;67.20
81136;DHT22;70622;50.886;3.890;2023-06-22T02:30:12;19.80;67.70
81136;DHT22;70622;50.886;3.890;2023-06-22T02:32:38;19.70;67.70
81136;DHT22;70622;50.886;3.890;2023-06-22T02:35:07;19.70;67.70
81136;DHT22;70622;50.886;3.890;2023-06-22T02:37:35;19.80;67.80
81136;DHT22;70622;50.886;3.890;2023-06-22T02:40:05;19.80;67.70
81136;DHT22;70622;50.886;3.890;2023-06-22T02:42:32;19.80;67.70
81136;DHT22;70622;50.886;3.890;2023-06-22T02:44:57;19.70;68.00
81136;DHT22;70622;50.886;3.890;2023-06-22T02:47:23;19.70;68.00
81136;DHT22;70622;50.886;3.890;2023-06-22T02:49:49;19.80;68.00
81136;DHT22;70622;50.886;3.890;2023-06-22T02:52:15;19.70;67.80
81136;DHT22;70622;50.886;3.890;2023-06-22T02:54:40;19.70;67.90
81136;DHT22;70622;50.886;3.890;2023-06-22T02:57:06;19.70;67.90
81136;DHT22;70622;50.886;3.890;2023-06-22T02:59:31;19.60;68.00
81136;DHT22;70622;50.886;3.890;2023-06-22T03:01:57;19.60;68.00
81136;DHT22;70622;50.886;3.890;2023-06-22T03:04:23;19.70;67.90
81136;DHT22;70622;50.886;3.890;2023-06-22T03:06:48;19.60;67.90
81136;DHT22;70622;50.886;3.890;2023-06-22T03:09:16;19.60;68.00
81136;DHT22;70622;50.886;3.890;2023-06-22T03:11:42;19.60;67.70
81136;DHT22;70622;50.886;3.890;2023-06-22T03:14:08;19.60;67.70
81136;DHT22;70622;50.886;3.890;2023-06-22T03:16:33;19.50;67.60
81136;DHT22;70622;50.886;3.890;2023-06-22T03:18:59;19.60;67.30
81136;DHT22;70622;50.886;3.890;2023-06-22T03:21:27;19.60;66.90
81136;DHT22;70622;50.886;3.890;2023-06-22T03:23:53;19.70;66.70
81136;DHT22;70622;50.886;3.890;2023-06-22T03:26:19;19.60;66.60
81136;DHT22;70622;50.886;3.890;2023-06-22T03:28:45;19.50;67.30
81136;DHT22;70622;50.886;3.890;2023-06-22T03:31:11;19.50;67.80
81136;DHT22;70622;50.886;3.890;2023-06-22T03:33:36;19.30;67.80
81136;DHT22;70622;50.886;3.890;2023-06-22T03:36:02;19.30;68.10
81136;DHT22;70622;50.886;3.890;2023-06-22T03:38:28;19.20;67.90
81136;DHT22;70622;50.886;3.890;2023-06-22T03:40:54;19.20;67.80
81136;DHT22;70622;50.886;3.890;2023-06-22T03:43:19;19.30;68.00
81136;DHT22;70622;50.886;3.890;2023-06-22T03:45:45;19.30;67.80
81136;DHT22;70622;50.886;3.890;2023-06-22T03:48:11;19.30;67.50
81136;DHT22;70622;50.886;3.890;2023-06-22T03:50:37;19.30;67.10
81136;DHT22;70622;50.886;3.890;2023-06-22T03:53:03;19.40;66.70
81136;DHT22;70622;50.886;3.890;2023-06-22T03:55:29;19.50;66.70
81136;DHT22;70622;50.886;3.890;2023-06-22T03:57:55;19.50;66.30
81136;DHT22;70622;50.886;3.890;2023-06-22T04:00:23;19.60;65.90
81136;DHT22;70622;50.886;3.890;2023-06-22T04:02:49;19.70;65.10
81136;DHT22;70622;50.886;3.890;2023-06-22T04:05:15;19.80;64.70
81136;DHT22;70622;50.886;3.890;2023-06-22T04:07:42;19.90;64.10
81136;DHT22;70622;50.886;3.890;2023-06-22T04:10:08;19.90;64.10
81136;DHT22;70622;50.886;3.890;2023-06-22T04:12:34;19.90;64.00
81136;DHT22;70622;50.886;3.890;2023-06-22T04:15:00;20.00;64.00
81136;DHT22;70622;50.886;3.890;2023-06-22T04:17:25;20.10;63.70
81136;DHT22;70622;50.886;3.890;2023-06-22T04:19:51;20.10;63.20
81136;DHT22;70622;50.886;3.890;2023-06-22T04:22:17;20.20;62.70
81136;DHT22;70622;50.886;3.890;2023-06-22T04:24:44;20.20;62.70
81136;DHT22;70622;50.886;3.890;2023-06-22T04:27:10;20.30;62.30
81136;DHT22;70622;50.886;3.890;2023-06-22T04:29:36;20.30;62.30
81136;DHT22;70622;50.886;3.890;2023-06-22T04:32:02;20.20;61.90
81136;DHT22;70622;50.886;3.890;2023-06-22T04:34:31;20.20;62.20
81136;DHT22;70622;50.886;3.890;2023-06-22T04:36:57;20.20;62.20
81136;DHT22;70622;50.886;3.890;2023-06-22T04:39:22;20.40;61.90
81136;DHT22;70622;50.886;3.890;2023-06-22T04:41:49;20.30;61.80
81136;DHT22;70622;50.886;3.890;2023-06-22T04:44:17;20.20;62.40
81136;DHT22;70622;50.886;3.890;2023-06-22T04:46:51;20.20;62.40
81136;DHT22;70622;50.886;3.890;2023-06-22T04:49:20;20.20;62.10
81136;DHT22;70622;50.886;3.890;2023-06-22T04:51:46;20.20;62.20
81136;DHT22;70622;50.886;3.890;2023-06-22T04:54:11;20.30;62.10
81136;DHT22;70622;50.886;3.890;2023-06-22T04:56:37;20.30;61.70
81136;DHT22;70622;50.886;3.890;2023-06-22T04:59:07;20.40;61.60
81136;DHT22;70622;50.886;3.890;2023-06-22T05:01:33;20.40;61.60
81136;DHT22;70622;50.886;3.890;2023-06-22T05:04:00;20.50;61.20
81136;DHT22;70622;50.886;3.890;2023-06-22T05:06:28;20.60;60.80
81136;DHT22;70622;50.886;3.890;2023-06-22T05:08:55;20.60;61.00
81136;DHT22;70622;50.886;3.890;2023-06-22T05:11:24;20.60;61.10
81136;DHT22;70622;50.886;3.890;2023-06-22T05:13:50;20.50;61.40
81136;DHT22;70622;50.886;3.890;2023-06-22T05:16:16;20.50;61.40
81136;DHT22;70622;50.886;3.890;2023-06-22T05:18:41;20.50;61.40
81136;DHT22;70622;50.886;3.890;2023-06-22T05:21:08;20.60;61.50
81136;DHT22;70622;50.886;3.890;2023-06-22T05:23:34;20.60;61.70
81136;DHT22;70622;50.886;3.890;2023-06-22T05:26:00;20.70;61.40
81136;DHT22;70622;50.886;3.890;2023-06-22T05:28:28;20.80;61.50
81136;DHT22;70622;50.886;3.890;2023-06-22T05:30:54;20.80;61.30
81136;DHT22;70622;50.886;3.890;2023-06-22T05:33:20;20.90;61.50
81136;DHT22;70622;50.886;3.890;2023-06-22T05:35:45;21.00;61.00
81136;DHT22;70622;50.886;3.890;2023-06-22T05:38:12;21.10;61.20
81136;DHT22;70622;50.886;3.890;2023-06-22T05:40:37;21.20;61.40
81136;DHT22;70622;50.886;3.890;2023-06-22T05:43:03;21.20;60.70
81136;DHT22;70622;50.886;3.890;2023-06-22T05:45:29;21.40;61.00
81136;DHT22;70622;50.886;3.890;2023-06-22T05:47:54;21.50;60.50
81136;DHT22;70622;50.886;3.890;2023-06-22T05:50:20;21.40;59.90
81136;DHT22;70622;50.886;3.890;2023-06-22T05:52:45;21.40;60.80
81136;DHT22;70622;50.886;3.890;2023-06-22T05:55:11;21.60;59.80
81136;DHT22;70622;50.886;3.890;2023-06-22T05:57:37;21.60;60.10
81136;DHT22;70622;50.886;3.890;2023-06-22T06:00:02;21.80;59.70
81136;DHT22;70622;50.886;3.890;2023-06-22T06:02:32;21.80;59.40
81136;DHT22;70622;50.886;3.890;2023-06-22T06:04:59;21.90;59.00
81136;DHT22;70622;50.886;3.890;2023-06-22T06:07:24;21.90;59.20
81136;DHT22;70622;50.886;3.890;2023-06-22T06:09:51;22.00;59.60
81136;DHT22;70622;50.886;3.890;2023-06-22T06:12:16;22.00;59.30
81136;DHT22;70622;50.886;3.890;2023-06-22T06:14:42;22.00;60.10
81136;DHT22;70622;50.886;3.890;2023-06-22T06:17:07;22.00;59.30
81136;DHT22;70622;50.886;3.890;2023-06-22T06:19:33;22.00;59.50
81136;DHT22;70622;50.886;3.890;2023-06-22T06:21:59;22.00;59.60
81136;DHT22;70622;50.886;3.890;2023-06-22T06:24:26;22.10;59.10
81136;DHT22;70622;50.886;3.890;2023-06-22T06:26:51;22.20;59.20
81136;DHT22;70622;50.886;3.890;2023-06-22T06:29:17;22.20;58.90
81136;DHT22;70622;50.886;3.890;2023-06-22T06:31:43;22.30;59.00
81136;DHT22;70622;50.886;3.890;2023-06-22T06:34:08;22.40;58.60
81136;DHT22;70622;50.886;3.890;2023-06-22T06:36:34;22.50;58.90
81136;DHT22;70622;50.886;3.890;2023-06-22T06:38:59;22.60;58.60
81136;DHT22;70622;50.886;3.890;2023-06-22T06:41:25;22.60;58.50
81136;DHT22;70622;50.886;3.890;2023-06-22T06:43:51;22.70;58.60
81136;DHT22;70622;50.886;3.890;2023-06-22T06:46:17;22.60;58.50
81136;DHT22;70622;50.886;3.890;2023-06-22T06:48:44;22.60;58.40
81136;DHT22;70622;50.886;3.890;2023-06-22T06:51:10;22.60;58.60
81136;DHT22;70622;50.886;3.890;2023-06-22T06:53:37;22.60;58.50
81136;DHT22;70622;50.886;3.890;2023-06-22T06:56:03;22.50;58.90
81136;DHT22;70622;50.886;3.890;2023-06-22T06:58:31;22.50;58.90
81136;DHT22;70622;50.886;3.890;2023-06-22T07:00:57;22.40;59.00
81136;DHT22;70622;50.886;3.890;2023-06-22T07:03:25;22.20;60.00
81136;DHT22;70622;50.886;3.890;2023-06-22T07:05:51;22.10;60.20
81136;DHT22;70622;50.886;3.890;2023-06-22T07:08:17;22.00;61.00
81136;DHT22;70622;50.886;3.890;2023-06-22T07:10:42;22.10;61.30
81136;DHT22;70622;50.886;3.890;2023-06-22T07:13:08;22.20;60.50
81136;DHT22;70622;50.886;3.890;2023-06-22T07:15:34;22.30;60.70
81136;DHT22;70622;50.886;3.890;2023-06-22T07:17:59;22.50;60.00
81136;DHT22;70622;50.886;3.890;2023-06-22T07:20:25;22.60;59.50
81136;DHT22;70622;50.886;3.890;2023-06-22T07:22:51;22.70;59.40
81136;DHT22;70622;50.886;3.890;2023-06-22T07:25:17;22.80;59.50
81136;DHT22;70622;50.886;3.890;2023-06-22T07:28:01;23.00;58.40
81136;DHT22;70622;50.886;3.890;2023-06-22T07:30:29;23.10;58.40
81136;DHT22;70622;50.886;3.890;2023-06-22T07:32:54;23.10;58.80
81136;DHT22;70622;50.886;3.890;2023-06-22T07:35:20;23.10;58.20
81136;DHT22;70622;50.886;3.890;2023-06-22T07:37:46;23.00;58.40
81136;DHT22;70622;50.886;3.890;2023-06-22T07:40:12;23.10;58.70
81136;DHT22;70622;50.886;3.890;2023-06-22T07:42:38;23.10;59.80
81136;DHT22;70622;50.886;3.890;2023-06-22T07:45:04;23.30;58.50
81136;DHT22;70622;50.886;3.890;2023-06-22T07:47:31;23.40;58.10
81136;DHT22;70622;50.886;3.890;2023-06-22T07:50:00;23.30;58.30
81136;DHT22;70622;50.886;3.890;2023-06-22T07:52:28;23.40;58.40
81136;DHT22;70622;50.886;3.890;2023-06-22T07:54:53;23.30;58.50
81136;DHT22;70622;50.886;3.890;2023-06-22T07:57:20;23.40;58.30
81136;DHT22;70622;50.886;3.890;2023-06-22T07:59:45;23.50;58.00
81136;DHT22;70622;50.886;3.890;2023-06-22T08:02:12;23.60;57.80
81136;DHT22;70622;50.886;3.890;2023-06-22T08:04:38;23.50;58.00
81136;DHT22;70622;50.886;3.890;2023-06-22T08:07:04;23.50;58.10
81136;DHT22;70622;50.886;3.890;2023-06-22T08:09:31;23.50;58.20
81136;DHT22;70622;50.886;3.890;2023-06-22T08:11:58;23.40;58.80
81136;DHT22;70622;50.886;3.890;2023-06-22T08:14:25;23.20;58.80
81136;DHT22;70622;50.886;3.890;2023-06-22T08:16:51;23.30;58.80
81136;DHT22;70622;50.886;3.890;2023-06-22T08:19:17;23.30;59.00
81136;DHT22;70622;50.886;3.890;2023-06-22T08:21:43;23.10;59.30
81136;DHT22;70622;50.886;3.890;2023-06-22T08:24:09;23.10;59.70
81136;DHT22;70622;50.886;3.890;2023-06-22T08:26:35;23.10;60.00
81136;DHT22;70622;50.886;3.890;2023-06-22T08:29:03;23.10;60.00
81136;DHT22;70622;50.886;3.890;2023-06-22T08:31:30;23.00;60.30
81136;DHT22;70622;50.886;3.890;2023-06-22T08:33:56;23.00;60.10
81136;DHT22;70622;50.886;3.890;2023-06-22T08:36:24;23.10;60.10
81136;DHT22;70622;50.886;3.890;2023-06-22T08:38:51;23.00;60.10
81136;DHT22;70622;50.886;3.890;2023-06-22T08:41:17;23.00;60.50
81136;DHT22;70622;50.886;3.890;2023-06-22T08:43:43;23.00;60.60
81136;DHT22;70622;50.886;3.890;2023-06-22T08:46:13;22.90;61.30
81136;DHT22;70622;50.886;3.890;2023-06-22T08:48:39;23.00;61.00
81136;DHT22;70622;50.886;3.890;2023-06-22T08:51:04;23.00;60.80
81136;DHT22;70622;50.886;3.890;2023-06-22T08:53:30;22.90;60.60
81136;DHT22;70622;50.886;3.890;2023-06-22T08:55:55;22.90;60.70
81136;DHT22;70622;50.886;3.890;2023-06-22T08:58:21;22.90;60.90
81136;DHT22;70622;50.886;3.890;2023-06-22T09:00:49;22.90;61.00
81136;DHT22;70622;50.886;3.890;2023-06-22T09:03:15;22.80;61.60
81136;DHT22;70622;50.886;3.890;2023-06-22T09:05:41;22.80;62.00
81136;DHT22;70622;50.886;3.890;2023-06-22T09:08:07;22.80;62.10
81136;DHT22;70622;50.886;3.890;2023-06-22T09:10:32;22.80;62.50
81136;DHT22;70622;50.886;3.890;2023-06-22T09:12:58;22.80;62.40
81136;DHT22;70622;50.886;3.890;2023-06-22T09:15:24;22.70;62.50
81136;DHT22;70622;50.886;3.890;2023-06-22T09:17:50;22.70;64.20
81136;DHT22;70622;50.886;3.890;2023-06-22T09:20:15;22.50;63.60
81136;DHT22;70622;50.886;3.890;2023-06-22T09:22:41;22.40;64.10
81136;DHT22;70622;50.886;3.890;2023-06-22T09:25:08;22.30;65.30
81136;DHT22;70622;50.886;3.890;2023-06-22T09:27:33;22.40;65.00
81136;DHT22;70622;50.886;3.890;2023-06-22T09:29:59;22.30;65.10
81136;DHT22;70622;50.886;3.890;2023-06-22T09:32:25;22.20;65.60
81136;DHT22;70622;50.886;3.890;2023-06-22T09:34:58;22.20;66.00
81136;DHT22;70622;50.886;3.890;2023-06-22T09:37:24;22.30;65.80
81136;DHT22;70622;50.886;3.890;2023-06-22T09:39:50;22.30;65.90
81136;DHT22;70622;50.886;3.890;2023-06-22T09:42:15;22.30;66.90
81136;DHT22;70622;50.886;3.890;2023-06-22T09:44:41;22.30;67.40
81136;DHT22;70622;50.886;3.890;2023-06-22T09:47:07;22.30;66.60
81136;DHT22;70622;50.886;3.890;2023-06-22T09:49:35;22.30;67.90
81136;DHT22;70622;50.886;3.890;2023-06-22T09:52:01;22.30;67.10
81136;DHT22;70622;50.886;3.890;2023-06-22T09:54:27;22.20;68.00
81136;DHT22;70622;50.886;3.890;2023-06-22T09:56:53;22.30;68.60
81136;DHT22;70622;50.886;3.890;2023-06-22T09:59:22;22.20;69.80
81136;DHT22;70622;50.886;3.890;2023-06-22T10:01:47;22.30;69.30
81136;DHT22;70622;50.886;3.890;2023-06-22T10:04:13;22.40;68.50
81136;DHT22;70622;50.886;3.890;2023-06-22T10:06:39;22.40;68.60
81136;DHT22;70622;50.886;3.890;2023-06-22T10:09:06;22.40;69.10
81136;DHT22;70622;50.886;3.890;2023-06-22T10:11:36;22.40;70.00
81136;DHT22;70622;50.886;3.890;2023-06-22T10:14:02;22.30;69.90
81136;DHT22;70622;50.886;3.890;2023-06-22T10:16:33;22.20;71.20
81136;DHT22;70622;50.886;3.890;2023-06-22T10:19:01;22.20;71.90
81136;DHT22;70622;50.886;3.890;2023-06-22T10:21:26;22.10;72.50
81136;DHT22;70622;50.886;3.890;2023-06-22T10:23:54;22.10;72.20
81136;DHT22;70622;50.886;3.890;2023-06-22T10:26:20;22.20;71.50
81136;DHT22;70622;50.886;3.890;2023-06-22T10:28:46;22.10;72.00
81136;DHT22;70622;50.886;3.890;2023-06-22T10:31:12;22.10;72.60
81136;DHT22;70622;50.886;3.890;2023-06-22T10:33:37;22.00;73.10
81136;DHT22;70622;50.886;3.890;2023-06-22T10:36:03;22.00;70.70
81136;DHT22;70622;50.886;3.890;2023-06-22T10:38:29;22.00;68.30
81136;DHT22;70622;50.886;3.890;2023-06-22T10:40:55;22.00;67.90
81136;DHT22;70622;50.886;3.890;2023-06-22T10:43:20;21.90;67.70
81136;DHT22;70622;50.886;3.890;2023-06-22T10:45:46;21.90;68.10
81136;DHT22;70622;50.886;3.890;2023-06-22T10:48:12;21.90;68.60
81136;DHT22;70622;50.886;3.890;2023-06-22T10:50:37;22.00;69.20
81136;DHT22;70622;50.886;3.890;2023-06-22T10:53:06;22.00;70.00
81136;DHT22;70622;50.886;3.890;2023-06-22T10:55:31;21.80;70.70
81136;DHT22;70622;50.886;3.890;2023-06-22T10:57:57;21.80;71.80
81136;DHT22;70622;50.886;3.890;2023-06-22T11:00:23;21.70;72.60
81136;DHT22;70622;50.886;3.890;2023-06-22T11:02:48;21.60;73.80
81136;DHT22;70622;50.886;3.890;2023-06-22T11:05:14;21.50;74.80
81136;DHT22;70622;50.886;3.890;2023-06-22T11:07:44;21.50;74.80
81136;DHT22;70622;50.886;3.890;2023-06-22T11:10:10;21.40;74.80
81136;DHT22;70622;50.886;3.890;2023-06-22T11:12:36;21.30;74.50
81136;DHT22;70622;50.886;3.890;2023-06-22T11:15:02;21.20;73.80
81136;DHT22;70622;50.886;3.890;2023-06-22T11:17:28;21.20;75.00
81136;DHT22;70622;50.886;3.890;2023-06-22T11:19:56;21.00;75.60
81136;DHT22;70622;50.886;3.890;2023-06-22T11:22:22;20.90;76.40
81136;DHT22;70622;50.886;3.890;2023-06-22T11:24:48;20.80;77.30
81136;DHT22;70622;50.886;3.890;2023-06-22T11:27:13;20.90;76.90
81136;DHT22;70622;50.886;3.890;2023-06-22T11:29:39;20.90;76.50
81136;DHT22;70622;50.886;3.890;2023-06-22T11:32:06;21.00;77.20
81136;DHT22;70622;50.886;3.890;2023-06-22T11:34:32;21.00;77.50
81136;DHT22;70622;50.886;3.890;2023-06-22T11:36:58;21.10;78.20
81136;DHT22;70622;50.886;3.890;2023-06-22T11:39:24;21.30;78.30
81136;DHT22;70622;50.886;3.890;2023-06-22T11:41:49;21.30;76.90
81136;DHT22;70622;50.886;3.890;2023-06-22T11:44:15;21.50;76.10
81136;DHT22;70622;50.886;3.890;2023-06-22T11:46:40;21.40;75.10
81136;DHT22;70622;50.886;3.890;2023-06-22T11:49:09;21.40;75.90
81136;DHT22;70622;50.886;3.890;2023-06-22T11:51:35;21.50;75.70
81136;DHT22;70622;50.886;3.890;2023-06-22T11:54:06;21.60;74.50
81136;DHT22;70622;50.886;3.890;2023-06-22T11:56:35;21.50;73.50
81136;DHT22;70622;50.886;3.890;2023-06-22T11:59:01;21.20;69.80
81136;DHT22;70622;50.886;3.890;2023-06-22T12:01:27;20.90;71.90
81136;DHT22;70622;50.886;3.890;2023-06-22T12:03:52;20.70;73.20
81136;DHT22;70622;50.886;3.890;2023-06-22T12:06:18;20.50;73.80
81136;DHT22;70622;50.886;3.890;2023-06-22T12:08:44;20.20;75.30
81136;DHT22;70622;50.886;3.890;2023-06-22T12:11:09;20.20;75.30
81136;DHT22;70622;50.886;3.890;2023-06-22T12:13:35;20.40;74.70
81136;DHT22;70622;50.886;3.890;2023-06-22T12:16:01;20.60;74.10
81136;DHT22;70622;50.886;3.890;2023-06-22T12:18:27;20.70;73.80
81136;DHT22;70622;50.886;3.890;2023-06-22T12:20:58;20.70;74.40
81136;DHT22;70622;50.886;3.890;2023-06-22T12:23:24;20.70;75.30
81136;DHT22;70622;50.886;3.890;2023-06-22T12:25:50;20.60;76.60
81136;DHT22;70622;50.886;3.890;2023-06-22T12:28:16;20.40;77.40
81136;DHT22;70622;50.886;3.890;2023-06-22T12:30:42;20.50;76.50
81136;DHT22;70622;50.886;3.890;2023-06-22T12:33:08;20.60;77.10
81136;DHT22;70622;50.886;3.890;2023-06-22T12:35:34;20.50;78.20
81136;DHT22;70622;50.886;3.890;2023-06-22T12:38:00;20.50;75.90
81136;DHT22;70622;50.886;3.890;2023-06-22T12:40:26;20.60;76.00
81136;DHT22;70622;50.886;3.890;2023-06-22T12:42:51;20.50;75.90
81136;DHT22;70622;50.886;3.890;2023-06-22T12:45:17;20.70;75.40
81136;DHT22;70622;50.886;3.890;2023-06-22T12:47:44;20.60;76.00
81136;DHT22;70622;50.886;3.890;2023-06-22T12:50:09;20.80;74.90
81136;DHT22;70622;50.886;3.890;2023-06-22T12:52:37;20.80;75.30
81136;DHT22;70622;50.886;3.890;2023-06-22T12:55:05;20.80;76.00
81136;DHT22;70622;50.886;3.890;2023-06-22T12:57:31;20.70;74.20
81136;DHT22;70622;50.886;3.890;2023-06-22T12:59:57;20.30;76.90
81136;DHT22;70622;50.886;3.890;2023-06-22T13:02:25;20.20;77.00
81136;DHT22;70622;50.886;3.890;2023-06-22T13:04:51;20.20;76.70
81136;DHT22;70622;50.886;3.890;2023-06-22T13:07:20;20.20;76.10
81136;DHT22;70622;50.886;3.890;2023-06-22T13:09:46;20.20;76.70
81136;DHT22;70622;50.886;3.890;2023-06-22T13:12:12;20.20;76.60
81136;DHT22;70622;50.886;3.890;2023-06-22T13:14:37;20.20;77.40
81136;DHT22;70622;50.886;3.890;2023-06-22T13:17:03;20.30;76.50
81136;DHT22;70622;50.886;3.890;2023-06-22T13:19:29;20.20;76.50
81136;DHT22;70622;50.886;3.890;2023-06-22T13:21:58;20.10;78.00
81136;DHT22;70622;50.886;3.890;2023-06-22T13:24:27;20.20;77.50
81136;DHT22;70622;50.886;3.890;2023-06-22T13:26:53;20.10;77.70
81136;DHT22;70622;50.886;3.890;2023-06-22T13:29:18;20.00;78.50
81136;DHT22;70622;50.886;3.890;2023-06-22T13:31:44;20.00;78.90
81136;DHT22;70622;50.886;3.890;2023-06-22T13:34:10;20.10;78.10
81136;DHT22;70622;50.886;3.890;2023-06-22T13:36:35;20.00;79.40
81136;DHT22;70622;50.886;3.890;2023-06-22T13:39:01;20.10;78.80
81136;DHT22;70622;50.886;3.890;2023-06-22T13:41:27;20.20;78.10
81136;DHT22;70622;50.886;3.890;2023-06-22T13:43:52;20.20;78.10
81136;DHT22;70622;50.886;3.890;2023-06-22T13:46:18;20.30;78.50
81136;DHT22;70622;50.886;3.890;2023-06-22T13:48:44;20.40;78.00
81136;DHT22;70622;50.886;3.890;2023-06-22T13:51:13;20.40;78.80
81136;DHT22;70622;50.886;3.890;2023-06-22T13:53:38;20.60;78.20
81136;DHT22;70622;50.886;3.890;2023-06-22T13:56:04;20.80;77.00
81136;DHT22;70622;50.886;3.890;2023-06-22T13:58:29;21.00;76.00
81136;DHT22;70622;50.886;3.890;2023-06-22T14:00:55;21.00;73.80
81136;DHT22;70622;50.886;3.890;2023-06-22T14:03:21;20.80;75.30
81136;DHT22;70622;50.886;3.890;2023-06-22T14:05:47;20.70;76.30
81136;DHT22;70622;50.886;3.890;2023-06-22T14:08:13;20.80;75.60
81136;DHT22;70622;50.886;3.890;2023-06-22T14:10:40;20.80;74.90
81136;DHT22;70622;50.886;3.890;2023-06-22T14:13:06;20.70;75.30
81136;DHT22;70622;50.886;3.890;2023-06-22T14:15:32;20.80;76.10
81136;DHT22;70622;50.886;3.890;2023-06-22T14:17:57;20.90;75.10
81136;DHT22;70622;50.886;3.890;2023-06-22T14:20:23;20.70;75.60
81136;DHT22;70622;50.886;3.890;2023-06-22T14:22:52;20.80;76.10
81136;DHT22;70622;50.886;3.890;2023-06-22T14:25:35;20.90;76.00
81136;DHT22;70622;50.886;3.890;2023-06-22T14:28:01;20.80;76.60
81136;DHT22;70622;50.886;3.890;2023-06-22T14:30:27;21.00;75.70
81136;DHT22;70622;50.886;3.890;2023-06-22T14:32:52;20.90;76.00
81136;DHT22;70622;50.886;3.890;2023-06-22T14:35:26;21.00;75.50
81136;DHT22;70622;50.886;3.890;2023-06-22T14:37:51;21.10;76.10
81136;DHT22;70622;50.886;3.890;2023-06-22T14:40:20;21.30;73.90
81136;DHT22;70622;50.886;3.890;2023-06-22T14:46:16;21.20;73.30
81136;DHT22;70622;50.886;3.890;2023-06-22T14:48:48;21.10;73.60
81136;DHT22;70622;50.886;3.890;2023-06-22T14:51:22;21.10;74.10
81136;DHT22;70622;50.886;3.890;2023-06-22T14:53:57;21.30;73.90
81136;DHT22;70622;50.886;3.890;2023-06-22T14:56:36;21.70;72.50
81136;DHT22;70622;50.886;3.890;2023-06-22T14:59:12;21.80;71.10
81136;DHT22;70622;50.886;3.890;2023-06-22T15:01:44;21.90;71.70
81136;DHT22;70622;50.886;3.890;2023-06-22T15:04:13;21.90;70.40
81136;DHT22;70622;50.886;3.890;2023-06-22T15:06:40;21.80;71.00
81136;DHT22;70622;50.886;3.890;2023-06-22T15:09:17;21.70;71.30
81136;DHT22;70622;50.886;3.890;2023-06-22T15:11:44;21.70;71.60
81136;DHT22;70622;50.886;3.890;2023-06-22T15:14:10;21.80;72.00
81136;DHT22;70622;50.886;3.890;2023-06-22T15:16:36;21.80;71.50
81136;DHT22;70622;50.886;3.890;2023-06-22T15:19:03;21.90;71.60
81136;DHT22;70622;50.886;3.890;2023-06-22T15:21:35;22.00;70.50
81136;DHT22;70622;50.886;3.890;2023-06-22T15:24:07;22.10;69.10
81136;DHT22;70622;50.886;3.890;2023-06-22T15:26:42;22.20;68.90
81136;DHT22;70622;50.886;3.890;2023-06-22T15:29:37;22.30;68.40
81136;DHT22;70622;50.886;3.890;2023-06-22T15:32:46;22.30;68.90
81136;DHT22;70622;50.886;3.890;2023-06-22T15:35:33;22.40;70.20
81136;DHT22;70622;50.886;3.890;2023-06-22T15:37:59;22.50;68.00